This is the latest recevied weather packets stored in our database for station/object W4MJZ-1. If no packets are shown the sender has not sent any weather packets the latest 10 day(s).
| Time | Temp. | Humidity | Pressure | Rain* | Wind** | Luminosity | Snow |
|---|---|---|---|---|---|---|---|
| 1777539637 | 16.67° C | 25% | 1020.7 hPa | 0 mm | - | - | - |
| 1777539438 | 16.11° C | 25% | 1020.3 hPa | 0 mm | - | - | - |
| 1777539256 | 16.67° C | 25% | 1020.3 hPa | 0 mm | - | - | - |
| 1777539140 | 16.67° C | 25% | 1020.7 hPa | 0 mm | - | - | - |
| 1777539082 | 17.22° C | 24% | 1020.3 hPa | 0 mm | - | - | - |
| 1777538838 | 16.67° C | 25% | 1020.3 hPa | 0 mm | - | - | - |
| 1777538657 | 17.78° C | 23% | 1020.7 hPa | 0 mm | - | - | - |
| 1777538538 | 17.22° C | 24% | 1020.3 hPa | 0 mm | - | - | - |
| 1777538293 | 17.78° C | 23% | 1020.7 hPa | 0 mm | - | - | - |
| 1777538239 | 17.78° C | 23% | 1020.7 hPa | 0 mm | - | - | - |
| 1777538006 | 17.22° C | 24% | 1020.7 hPa | 0 mm | - | - | - |
| 1777537939 | 17.78° C | 23% | 1020.7 hPa | 0 mm | - | - | - |
| 1777537724 | 17.22° C | 24% | 1020.7 hPa | 0 mm | - | - | - |
| 1777537639 | 17.22° C | 24% | 1020.7 hPa | 0 mm | - | - | - |
| 1777537339 | 17.22° C | 24% | 1020.7 hPa | 0 mm | - | - | - |
| 1777537144 | 17.78° C | 23% | 1020.7 hPa | 0 mm | - | - | - |
| 1777537039 | 17.78° C | 23% | 1020.7 hPa | 0 mm | - | - | - |
| 1777536831 | 18.33° C | 23% | 1020.7 hPa | 0 mm | - | - | - |
| 1777536739 | 17.78° C | 23% | 1020.7 hPa | 0 mm | - | - | - |
| 1777536440 | 18.33° C | 23% | 1020.7 hPa | 0 mm | - | - | - |
| 1777536237 | 18.89° C | 22% | 1021.5 hPa | 0 mm | - | - | - |
| 1777536139 | 18.33° C | 23% | 1021.1 hPa | 0 mm | - | - | - |
| 1777535962 | 18.89° C | 22% | 1021.5 hPa | 0 mm | - | - | - |
| 1777535839 | 18.89° C | 22% | 1021.5 hPa | 0 mm | - | - | - |
| 1777535564 | 18.89° C | 22% | 1021.5 hPa | 0 mm | - | - | - |
* Rain latest hour (hover to see other rain measurements)
** Current wind speed in m/s (hover to see current wind gust speed)